createdAt,value
2023-01-19T00:00:54.583Z,8.87
2023-01-19T00:03:21.586Z,10.27
2023-01-19T00:05:48.927Z,10.73
2023-01-19T00:08:16.736Z,12.70
2023-01-19T00:10:47.091Z,8.73
2023-01-19T00:13:15.274Z,10.73
2023-01-19T00:15:42.376Z,10.83
2023-01-19T00:18:10.899Z,9.73
2023-01-19T00:20:39.487Z,12.87
2023-01-19T00:23:08.032Z,10.93
2023-01-19T00:25:36.146Z,8.67
2023-01-19T00:28:03.097Z,10.67
2023-01-19T00:30:30.257Z,10.90
2023-01-19T00:32:57.493Z,11.07
2023-01-19T00:35:24.570Z,12.20
2023-01-19T00:37:51.527Z,9.87
2023-01-19T00:40:18.521Z,10.97
2023-01-19T00:42:48.265Z,10.30
2023-01-19T00:45:19.729Z,12.10
2023-01-19T00:47:48.229Z,10.53
2023-01-19T00:50:16.785Z,10.50
2023-01-19T00:52:44.902Z,11.60
2023-01-19T00:55:14.673Z,10.60
2023-01-19T00:57:42.562Z,11.50
2023-01-19T01:00:13.607Z,10.50
2023-01-19T01:02:42.274Z,10.10
2023-01-19T01:05:11.227Z,9.40
2023-01-19T01:07:42.902Z,9.97
2023-01-19T01:10:25.375Z,12.53
2023-01-19T01:12:55.657Z,10.03
2023-01-19T01:15:27.523Z,13.10
2023-01-19T01:17:54.750Z,9.90
2023-01-19T01:20:27.897Z,10.53
2023-01-19T01:22:56.732Z,13.97
2023-01-19T01:25:25.918Z,11.10
2023-01-19T01:27:53.447Z,12.97
2023-01-19T01:30:21.677Z,12.60
2023-01-19T01:32:49.140Z,11.10
2023-01-19T01:35:16.615Z,13.13
2023-01-19T01:37:43.631Z,11.60
2023-01-19T01:40:14.227Z,12.10
2023-01-19T01:42:42.351Z,11.47
2023-01-19T01:45:34.195Z,13.80
2023-01-19T01:48:27.349Z,13.87
2023-01-19T01:51:19.479Z,12.67
2023-01-19T01:53:51.532Z,12.73
2023-01-19T01:56:24.774Z,13.00
2023-01-19T01:58:52.118Z,12.47
2023-01-19T02:01:37.657Z,11.70
2023-01-19T02:04:04.759Z,13.33
2023-01-19T02:06:31.695Z,13.77
2023-01-19T02:09:24.471Z,13.10
2023-01-19T02:12:10.244Z,13.00
2023-01-19T02:14:37.503Z,13.87
2023-01-19T02:17:05.968Z,11.40
2023-01-19T02:19:43.528Z,12.90
2023-01-19T02:22:25.746Z,13.40
2023-01-19T02:24:53.905Z,12.37
2023-01-19T02:27:21.211Z,12.00
2023-01-19T02:29:48.252Z,12.80
2023-01-19T02:32:15.268Z,14.17
2023-01-19T02:34:42.259Z,15.83
2023-01-19T02:37:13.593Z,15.50
2023-01-19T02:39:47.337Z,15.53
2023-01-19T02:42:29.743Z,15.73
2023-01-19T02:44:57.687Z,15.50
2023-01-19T02:47:24.814Z,15.23
2023-01-19T02:49:59.694Z,16.10
2023-01-19T02:52:27.940Z,12.47
2023-01-19T02:55:18.274Z,15.77
2023-01-19T02:58:07.283Z,15.53
2023-01-19T03:01:08.576Z,16.60
2023-01-19T03:03:56.219Z,15.00
2023-01-19T03:06:48.178Z,13.27
2023-01-19T03:09:43.354Z,14.47
2023-01-19T03:12:26.816Z,15.70
2023-01-19T03:15:01.022Z,15.33
2023-01-19T03:17:31.074Z,15.23
2023-01-19T03:19:58.256Z,12.87
2023-01-19T03:22:29.342Z,14.70
2023-01-19T03:25:00.508Z,15.23
2023-01-19T03:27:32.354Z,16.50
2023-01-19T03:30:11.464Z,16.30
2023-01-19T03:32:51.628Z,11.37
2023-01-19T03:35:22.751Z,15.83
2023-01-19T03:37:53.132Z,16.10
2023-01-19T03:40:20.421Z,15.33
2023-01-19T03:42:49.094Z,16.00
2023-01-19T03:45:16.821Z,14.90
2023-01-19T03:47:44.985Z,15.00
2023-01-19T03:50:25.005Z,15.80
2023-01-19T03:53:07.216Z,16.40
2023-01-19T03:55:35.663Z,15.40
2023-01-19T03:58:02.643Z,16.33
2023-01-19T04:00:30.400Z,15.90
2023-01-19T04:02:57.527Z,15.00
2023-01-19T04:05:24.776Z,16.53
2023-01-19T04:07:52.422Z,15.67
2023-01-19T04:10:20.025Z,17.57
2023-01-19T04:12:47.332Z,18.17
2023-01-19T04:15:15.014Z,18.83
2023-01-19T04:17:42.263Z,17.60
2023-01-19T04:20:10.081Z,14.93
2023-01-19T04:22:38.796Z,18.60
2023-01-19T04:25:07.135Z,16.70
2023-01-19T04:27:34.120Z,17.93
2023-01-19T04:30:01.345Z,16.93
2023-01-19T04:32:28.252Z,16.40
2023-01-19T04:34:55.146Z,16.40
2023-01-19T04:37:22.390Z,15.37
2023-01-19T04:39:49.289Z,15.63
2023-01-19T04:42:16.943Z,15.83
2023-01-19T04:44:43.875Z,15.90
2023-01-19T04:47:11.347Z,16.70
2023-01-19T04:49:38.395Z,16.17
2023-01-19T04:52:06.189Z,17.03
2023-01-19T04:54:33.629Z,13.37
2023-01-19T04:57:00.693Z,15.30
2023-01-19T04:59:27.668Z,16.53
2023-01-19T05:01:55.963Z,16.10
2023-01-19T05:04:24.048Z,16.23
2023-01-19T05:06:51.602Z,16.63
2023-01-19T05:09:18.585Z,15.40
2023-01-19T05:11:46.137Z,17.37
2023-01-19T05:14:13.047Z,17.03
2023-01-19T05:16:39.987Z,15.67
2023-01-19T05:19:06.943Z,15.53
2023-01-19T05:21:33.829Z,16.00
2023-01-19T05:24:00.801Z,17.88
2023-01-19T05:26:27.693Z,15.27
2023-01-19T05:28:54.672Z,16.90
2023-01-19T05:31:21.619Z,17.10
2023-01-19T05:33:49.029Z,15.60
2023-01-19T05:36:15.956Z,16.30
2023-01-19T05:38:42.907Z,15.03
2023-01-19T05:41:09.840Z,14.07
2023-01-19T05:43:36.718Z,14.07
2023-01-19T05:46:05.349Z,16.00
2023-01-19T05:48:32.595Z,13.10
2023-01-19T05:51:00.547Z,14.13
2023-01-19T05:53:28.477Z,14.97
2023-01-19T05:56:01.678Z,13.90
2023-01-19T05:58:29.012Z,13.97
2023-01-19T06:00:56.133Z,14.17
2023-01-19T06:03:23.396Z,12.07
2023-01-19T06:05:50.287Z,14.10
2023-01-19T06:08:17.174Z,12.20
2023-01-19T06:10:44.034Z,12.87
2023-01-19T06:13:11.187Z,15.23
2023-01-19T06:15:38.202Z,13.60
2023-01-19T06:18:05.150Z,12.50
2023-01-19T06:20:32.681Z,13.80
2023-01-19T06:23:00.030Z,13.90
2023-01-19T06:25:27.250Z,14.23
2023-01-19T06:27:54.136Z,13.80
2023-01-19T06:30:21.351Z,13.33
2023-01-19T06:32:48.251Z,13.97
2023-01-19T06:35:15.327Z,13.67
2023-01-19T06:37:42.243Z,10.87
2023-01-19T06:40:10.048Z,13.57
2023-01-19T06:42:36.963Z,12.57
2023-01-19T06:45:04.592Z,10.43
2023-01-19T06:47:33.686Z,10.90
2023-01-19T06:50:01.752Z,12.20
2023-01-19T06:52:28.714Z,11.70
2023-01-19T06:54:55.601Z,12.50
2023-01-19T06:57:25.773Z,12.37
2023-01-19T06:59:52.719Z,11.70
2023-01-19T07:02:27.701Z,13.30
2023-01-19T07:04:56.502Z,16.43
2023-01-19T07:07:23.380Z,11.40
2023-01-19T07:09:50.289Z,12.47
2023-01-19T07:12:21.148Z,12.10
2023-01-19T07:14:49.368Z,12.67
2023-01-19T07:17:16.399Z,11.07
2023-01-19T07:19:43.315Z,11.73
2023-01-19T07:22:10.335Z,11.57
2023-01-19T07:24:38.032Z,12.77
2023-01-19T07:27:05.453Z,13.67
2023-01-19T07:29:32.352Z,12.00
2023-01-19T07:31:59.422Z,11.17
2023-01-19T07:34:26.305Z,12.50
2023-01-19T07:36:53.202Z,12.37
2023-01-19T07:39:20.072Z,12.50
2023-01-19T07:41:48.903Z,7.57
2023-01-19T07:44:15.835Z,12.47
2023-01-19T07:46:43.391Z,10.30
2023-01-19T07:49:10.513Z,11.70
2023-01-19T07:51:37.448Z,13.10
2023-01-19T07:54:04.385Z,13.63
2023-01-19T07:56:33.885Z,11.00
2023-01-19T07:59:01.295Z,12.20
2023-01-19T08:01:28.395Z,12.07
2023-01-19T08:03:55.383Z,12.43
2023-01-19T08:06:27.332Z,13.40
2023-01-19T08:08:54.297Z,12.57
2023-01-19T08:11:21.339Z,14.50
2023-01-19T08:13:48.263Z,15.00
2023-01-19T08:16:15.203Z,19.70
2023-01-19T08:18:42.609Z,23.37
2023-01-19T08:21:09.553Z,26.93
2023-01-19T08:23:36.448Z,25.57
2023-01-19T08:26:23.821Z,23.40
2023-01-19T08:28:50.755Z,20.00
2023-01-19T08:31:21.168Z,19.00
2023-01-19T08:33:49.852Z,14.10
2023-01-19T08:36:16.947Z,19.17
2023-01-19T08:38:47.495Z,15.50
2023-01-19T08:41:16.445Z,19.40
2023-01-19T08:43:45.358Z,15.63
2023-01-19T08:46:12.567Z,13.83
2023-01-19T08:48:40.209Z,8.63
2023-01-19T08:51:07.090Z,12.30
2023-01-19T08:53:34.619Z,9.53
2023-01-19T08:56:02.231Z,9.67
2023-01-19T08:58:29.346Z,10.00
2023-01-19T09:00:56.700Z,10.83
2023-01-19T09:03:23.728Z,9.70
2023-01-19T09:05:50.692Z,9.93
2023-01-19T09:08:17.887Z,11.13
2023-01-19T09:10:50.594Z,10.97
2023-01-19T09:13:19.083Z,11.90
2023-01-19T09:15:46.514Z,10.40
2023-01-19T09:18:19.751Z,10.70
2023-01-19T09:20:49.248Z,9.70
2023-01-19T09:23:19.146Z,10.93
2023-01-19T09:25:48.005Z,10.80
2023-01-19T09:28:17.564Z,9.70
2023-01-19T09:30:44.976Z,10.37
2023-01-19T09:33:15.983Z,10.00
2023-01-19T09:35:44.813Z,9.50
2023-01-19T09:38:12.342Z,8.80
2023-01-19T09:40:51.725Z,9.67
2023-01-19T09:43:39.570Z,9.63
2023-01-19T09:46:15.182Z,9.30
2023-01-19T09:48:52.981Z,9.03
2023-01-19T09:51:27.495Z,9.43
2023-01-19T09:54:08.132Z,10.47
2023-01-19T09:56:35.456Z,9.10
2023-01-19T09:59:19.831Z,9.37
2023-01-19T10:02:03.590Z,8.80
2023-01-19T10:04:41.018Z,10.43
2023-01-19T10:07:45.067Z,10.10
2023-01-19T10:10:24.686Z,9.80
2023-01-19T10:13:29.223Z,10.40
2023-01-19T10:16:40.219Z,10.63
2023-01-19T10:19:29.963Z,9.53
2023-01-19T10:22:04.317Z,6.73
2023-01-19T10:24:39.992Z,9.60
2023-01-19T10:27:17.924Z,10.40
2023-01-19T10:29:45.744Z,8.70
2023-01-19T10:32:26.082Z,9.20
2023-01-19T10:34:54.642Z,7.03
2023-01-19T10:37:38.266Z,9.53
2023-01-19T10:40:11.645Z,9.73
2023-01-19T10:42:41.267Z,9.70
2023-01-19T10:45:23.130Z,9.57
2023-01-19T10:47:50.436Z,7.67
2023-01-19T10:50:31.663Z,6.93
2023-01-19T10:53:03.908Z,8.60
2023-01-19T10:55:38.076Z,9.07
2023-01-19T10:58:08.935Z,7.40
2023-01-19T11:00:40.145Z,7.30
2023-01-19T11:03:30.297Z,7.00
2023-01-19T11:06:15.849Z,6.90
2023-01-19T11:08:44.755Z,8.90
2023-01-19T11:11:13.016Z,20.20
2023-01-19T11:13:41.629Z,9.60
2023-01-19T11:16:30.504Z,13.40
2023-01-19T11:18:58.434Z,14.43
2023-01-19T11:21:28.826Z,12.60
2023-01-19T11:24:08.628Z,8.57
2023-01-19T11:26:41.650Z,9.60
2023-01-19T11:29:26.832Z,11.20
2023-01-19T11:31:55.162Z,11.07
2023-01-19T11:34:33.708Z,8.30
2023-01-19T11:37:23.497Z,8.03
2023-01-19T11:39:53.885Z,8.70
2023-01-19T11:42:21.609Z,7.00
2023-01-19T11:45:03.771Z,5.60
2023-01-19T11:47:45.068Z,6.40
2023-01-19T11:50:23.727Z,6.90
2023-01-19T11:53:25.439Z,5.67
2023-01-19T11:56:12.239Z,9.47
2023-01-19T11:58:47.878Z,7.10
2023-01-19T12:01:24.798Z,5.87
2023-01-19T12:03:59.874Z,4.77
2023-01-19T12:06:58.080Z,7.30
2023-01-19T12:09:45.292Z,5.07
2023-01-19T12:12:32.833Z,4.17
2023-01-19T12:15:22.719Z,4.37
2023-01-19T12:17:52.810Z,3.93
2023-01-19T12:20:33.807Z,4.90
2023-01-19T12:23:11.436Z,4.87
2023-01-19T12:26:01.001Z,3.83
2023-01-19T12:28:33.136Z,4.87
2023-01-19T12:31:02.089Z,7.00
2023-01-19T12:33:35.114Z,5.40
2023-01-19T12:36:10.285Z,3.83
2023-01-19T12:38:52.716Z,5.07
2023-01-19T12:41:28.023Z,3.90
2023-01-19T12:44:14.072Z,4.50
2023-01-19T12:47:06.371Z,4.10
2023-01-19T12:49:38.719Z,4.57
2023-01-19T12:52:28.590Z,3.93
2023-01-19T12:55:14.002Z,2.90
2023-01-19T12:57:48.351Z,2.87
2023-01-19T13:00:31.950Z,3.10
2023-01-19T13:03:18.509Z,2.63
2023-01-19T13:05:51.255Z,2.60
2023-01-19T13:08:24.539Z,2.47
2023-01-19T13:11:00.657Z,2.93
2023-01-19T13:13:36.787Z,2.60
2023-01-19T13:16:18.970Z,2.80
2023-01-19T13:18:48.606Z,2.57
2023-01-19T13:21:30.548Z,3.33
2023-01-19T13:24:07.124Z,2.90
2023-01-19T13:26:50.311Z,2.87
2023-01-19T13:29:24.558Z,3.27
2023-01-19T13:31:54.765Z,3.90
2023-01-19T13:34:26.086Z,3.60
2023-01-19T13:37:01.920Z,3.30
2023-01-19T13:39:35.014Z,3.13
2023-01-19T13:42:07.933Z,3.10
2023-01-19T13:44:52.369Z,4.10
2023-01-19T13:47:42.840Z,3.47
2023-01-19T13:50:39.164Z,5.10
2023-01-19T13:53:21.122Z,2.50
2023-01-19T13:55:48.155Z,2.80
2023-01-19T13:58:23.788Z,2.97
2023-01-19T14:00:50.833Z,2.90
2023-01-19T14:03:23.578Z,2.50
2023-01-19T14:05:55.150Z,2.70
2023-01-19T14:08:23.284Z,2.77
2023-01-19T14:10:56.404Z,2.73
2023-01-19T14:13:33.114Z,2.60
2023-01-19T14:16:05.466Z,2.17
2023-01-19T14:18:34.695Z,2.83
2023-01-19T14:21:11.728Z,8.13
2023-01-19T14:23:57.579Z,5.10
2023-01-19T14:26:51.359Z,2.80
2023-01-19T14:29:37.990Z,3.87
2023-01-19T14:32:15.191Z,3.00
2023-01-19T14:35:13.530Z,2.93
2023-01-19T14:37:49.535Z,1.30
2023-01-19T14:40:20.600Z,2.50
2023-01-19T14:42:57.488Z,2.80
2023-01-19T14:45:35.851Z,2.60
2023-01-19T14:48:06.753Z,2.63
2023-01-19T14:50:41.457Z,2.37
2023-01-19T14:53:15.253Z,2.20
2023-01-19T14:55:55.468Z,2.50
2023-01-19T14:58:26.522Z,2.93
2023-01-19T15:00:55.745Z,2.97
2023-01-19T15:03:32.033Z,2.87
2023-01-19T15:06:27.937Z,2.33
2023-01-19T15:08:55.430Z,2.83
2023-01-19T15:11:25.110Z,3.47
2023-01-19T15:13:52.271Z,3.60
2023-01-19T15:16:19.544Z,3.57
2023-01-19T15:18:46.455Z,6.73
2023-01-19T15:21:20.059Z,3.37
2023-01-19T15:23:47.754Z,4.50
2023-01-19T15:26:21.742Z,2.90
2023-01-19T15:28:49.456Z,3.03
2023-01-19T15:31:19.601Z,2.40
2023-01-19T15:33:46.888Z,3.60
2023-01-19T15:36:19.667Z,3.87
2023-01-19T15:38:47.634Z,3.10
2023-01-19T15:41:24.220Z,5.13
2023-01-19T15:43:51.239Z,5.00
2023-01-19T15:46:23.543Z,9.50
2023-01-19T15:48:50.983Z,9.97
2023-01-19T15:51:21.822Z,6.63
2023-01-19T15:53:49.465Z,6.90
2023-01-19T15:56:22.065Z,5.67
2023-01-19T15:58:49.182Z,6.40
2023-01-19T16:01:22.073Z,7.97
2023-01-19T16:03:49.992Z,10.13
2023-01-19T16:06:17.925Z,17.57
2023-01-19T16:08:45.252Z,9.23
2023-01-19T16:11:15.202Z,6.67
2023-01-19T16:13:46.250Z,6.10
2023-01-19T16:16:20.317Z,7.80
2023-01-19T16:18:47.286Z,7.23
2023-01-19T16:21:14.206Z,7.30
2023-01-19T16:23:41.140Z,8.30
2023-01-19T16:26:26.137Z,8.10
2023-01-19T16:28:56.427Z,9.10
2023-01-19T16:31:23.662Z,10.87
2023-01-19T16:33:50.601Z,11.82
2023-01-19T16:36:23.641Z,12.32
2023-01-19T16:38:50.831Z,12.48
2023-01-19T16:41:17.918Z,10.10
2023-01-19T16:43:49.335Z,12.10
2023-01-19T16:46:23.217Z,11.60
2023-01-19T16:48:51.339Z,16.73
2023-01-19T16:51:19.715Z,17.00
2023-01-19T16:53:48.658Z,14.73
2023-01-19T16:56:15.718Z,20.37
2023-01-19T16:58:42.711Z,24.63
2023-01-19T17:01:13.623Z,36.30
2023-01-19T17:03:41.535Z,26.63
2023-01-19T17:06:11.461Z,20.30
2023-01-19T17:08:39.110Z,24.60
2023-01-19T17:11:13.698Z,17.57
2023-01-19T17:13:40.601Z,15.23
2023-01-19T17:16:08.227Z,17.10
2023-01-19T17:18:37.783Z,25.83
2023-01-19T17:21:10.127Z,25.07
2023-01-19T17:23:42.281Z,25.20
2023-01-19T17:26:09.192Z,39.07
2023-01-19T17:28:36.152Z,40.30
2023-01-19T17:31:15.121Z,37.93
2023-01-19T17:33:45.440Z,41.77
2023-01-19T17:36:16.688Z,36.70
2023-01-19T17:38:43.699Z,48.90
2023-01-19T17:41:16.214Z,34.83
2023-01-19T17:43:43.639Z,35.27
2023-01-19T17:46:11.384Z,43.30
2023-01-19T17:48:39.505Z,45.93
2023-01-19T17:51:09.501Z,46.10
2023-01-19T17:53:38.378Z,31.70
2023-01-19T17:56:11.600Z,21.90
2023-01-19T17:58:38.977Z,17.77
2023-01-19T18:01:12.067Z,16.20
2023-01-19T18:03:39.847Z,19.37
2023-01-19T18:06:07.557Z,25.80
2023-01-19T18:08:36.256Z,32.07
2023-01-19T18:11:04.093Z,37.00
2023-01-19T18:13:31.096Z,39.40
2023-01-19T18:16:17.650Z,44.53
2023-01-19T18:18:44.886Z,38.00
2023-01-19T18:21:14.119Z,35.10
2023-01-19T18:23:43.454Z,29.30
2023-01-19T18:26:14.300Z,23.80
2023-01-19T18:28:41.246Z,21.63
2023-01-19T18:31:10.751Z,21.77
2023-01-19T18:33:38.896Z,20.50
2023-01-19T18:36:07.136Z,23.87
2023-01-19T18:38:35.401Z,22.13
2023-01-19T18:41:08.005Z,23.00
2023-01-19T18:43:35.448Z,30.50
2023-01-19T18:46:02.940Z,35.73
2023-01-19T18:48:30.187Z,41.70
2023-01-19T18:50:57.174Z,45.20
2023-01-19T18:53:24.437Z,36.80
2023-01-19T18:55:53.040Z,38.90
2023-01-19T18:58:20.325Z,40.87
2023-01-19T19:00:47.979Z,41.97
2023-01-19T19:03:15.195Z,43.33
2023-01-19T19:05:42.230Z,45.93
2023-01-19T19:08:09.487Z,44.07
2023-01-19T19:10:37.283Z,42.77
2023-01-19T19:13:04.267Z,40.93
2023-01-19T19:15:33.327Z,39.40
2023-01-19T19:18:00.544Z,45.33
2023-01-19T19:20:27.480Z,43.93
2023-01-19T19:22:55.467Z,33.70
2023-01-19T19:25:22.591Z,31.77
2023-01-19T19:27:52.973Z,33.23
2023-01-19T19:30:21.263Z,37.90
2023-01-19T19:32:59.761Z,42.10
2023-01-19T19:35:26.842Z,32.93
2023-01-19T19:37:57.387Z,27.97
2023-01-19T19:40:26.793Z,26.13
2023-01-19T19:42:53.683Z,22.70
2023-01-19T19:45:20.602Z,24.30
2023-01-19T19:47:47.560Z,22.20
2023-01-19T19:50:14.890Z,25.80
2023-01-19T19:52:42.729Z,23.80
2023-01-19T19:55:10.737Z,26.40
2023-01-19T19:57:37.992Z,27.07
2023-01-19T20:00:06.355Z,25.23
2023-01-19T20:02:36.777Z,25.73
2023-01-19T20:05:04.489Z,25.47
2023-01-19T20:07:31.660Z,24.37
2023-01-19T20:09:58.868Z,26.10
2023-01-19T20:12:25.840Z,23.50
2023-01-19T20:14:52.749Z,25.33
2023-01-19T20:17:20.709Z,25.43
2023-01-19T20:19:48.966Z,27.80
2023-01-19T20:22:16.207Z,26.60
2023-01-19T20:24:43.284Z,25.50
2023-01-19T20:27:10.259Z,24.90
2023-01-19T20:29:37.180Z,22.57
2023-01-19T20:32:04.204Z,26.50
2023-01-19T20:34:33.635Z,28.03
2023-01-19T20:37:01.668Z,25.57
2023-01-19T20:39:30.226Z,24.33
2023-01-19T20:41:57.278Z,25.23
2023-01-19T20:44:25.755Z,27.17
2023-01-19T20:46:54.536Z,27.97
2023-01-19T20:49:21.531Z,26.80
2023-01-19T20:51:49.931Z,24.10
2023-01-19T20:54:19.519Z,24.03
2023-01-19T20:56:46.653Z,24.10
2023-01-19T20:59:13.890Z,25.97
2023-01-19T21:01:41.482Z,26.30
2023-01-19T21:04:09.231Z,25.17
2023-01-19T21:06:36.749Z,27.20
2023-01-19T21:09:04.176Z,29.50
2023-01-19T21:11:31.546Z,27.67
2023-01-19T21:13:58.780Z,26.93
2023-01-19T21:16:42.529Z,27.17
2023-01-19T21:19:09.467Z,28.27
2023-01-19T21:21:36.421Z,27.80
2023-01-19T21:24:04.145Z,27.03
2023-01-19T21:26:33.154Z,27.00
2023-01-19T21:29:01.975Z,29.70
2023-01-19T21:31:29.539Z,27.57
2023-01-19T21:33:57.785Z,27.80
2023-01-19T21:36:25.976Z,27.77
2023-01-19T21:38:55.372Z,27.27
2023-01-19T21:41:22.448Z,27.20
2023-01-19T21:43:49.325Z,29.60
2023-01-19T21:46:29.553Z,27.03
2023-01-19T21:49:02.155Z,27.60
2023-01-19T21:51:33.452Z,27.43
2023-01-19T21:54:05.331Z,29.33
2023-01-19T21:56:32.715Z,30.43
2023-01-19T21:59:02.746Z,27.40
2023-01-19T22:01:31.371Z,28.63
2023-01-19T22:03:59.188Z,27.60
2023-01-19T22:06:27.179Z,28.80
2023-01-19T22:08:55.195Z,27.37
2023-01-19T22:11:22.290Z,28.47
2023-01-19T22:13:49.204Z,26.40
2023-01-19T22:16:19.554Z,26.73
2023-01-19T22:18:51.825Z,26.20
2023-01-19T22:21:23.253Z,27.93
2023-01-19T22:23:59.057Z,28.57
2023-01-19T22:26:28.192Z,26.40
2023-01-19T22:29:00.599Z,28.00
2023-01-19T22:31:29.159Z,26.10
2023-01-19T22:33:57.213Z,27.47
2023-01-19T22:36:30.395Z,26.33
2023-01-19T22:39:00.344Z,26.90
2023-01-19T22:41:33.504Z,27.97
2023-01-19T22:44:03.851Z,25.27
2023-01-19T22:46:33.918Z,24.37
2023-01-19T22:49:01.472Z,24.47
2023-01-19T22:51:29.842Z,24.27
2023-01-19T22:53:57.122Z,25.40
2023-01-19T22:56:27.435Z,24.90
2023-01-19T22:58:54.963Z,24.73
2023-01-19T23:01:28.003Z,25.50
2023-01-19T23:03:55.677Z,25.50
2023-01-19T23:06:29.898Z,24.63
2023-01-19T23:09:00.282Z,25.60
2023-01-19T23:11:34.258Z,26.37
2023-01-19T23:14:03.956Z,28.13
2023-01-19T23:16:31.142Z,23.77
2023-01-19T23:18:58.773Z,26.23
2023-01-19T23:21:30.975Z,25.90
2023-01-19T23:24:01.843Z,22.23
2023-01-19T23:26:30.765Z,25.43
2023-01-19T23:29:01.882Z,22.10
2023-01-19T23:31:32.332Z,25.40
2023-01-19T23:34:07.995Z,23.23
2023-01-19T23:36:37.782Z,22.80
2023-01-19T23:39:10.642Z,23.73
2023-01-19T23:41:37.556Z,23.60
2023-01-19T23:44:04.779Z,22.07
2023-01-19T23:46:31.985Z,23.10
2023-01-19T23:48:58.925Z,23.77
2023-01-19T23:51:28.774Z,23.33
2023-01-19T23:53:57.524Z,22.10
2023-01-19T23:56:28.240Z,23.90
2023-01-19T23:58:58.806Z,24.30
